Time;durP1;ratioP1;P1;durP2;ratioP2;P2;SDS_P1;SDS_P2;PMS_P1;PMS_P2;Temp;Humidity;BMP_temperature;BMP_pressure;BME280_temperature;BME280_humidity;BME280_pressure;Samples;Min_cycle;Max_cycle;Signal;HPM_P1;HPM_P2
2021/09/23 00:00:24;;;;;;;3.92;2.78;;;10.60;89.70;;;;;;5045117;28;20036;-68
2021/09/23 00:05:27;;;;;;;5.75;3.15;;;10.60;89.60;;;;;;5040619;28;20033;-68
2021/09/23 00:07:55;;;;;;;3.13;2.83;;;10.60;89.60;;;;;;5036238;28;20107;-68
2021/09/23 00:10:36;;;;;;;3.30;3.03;;;10.60;89.50;;;;;;5046599;28;20031;-68
2021/09/23 00:13:04;;;;;;;5.80;3.10;;;10.50;89.50;;;;;;5043001;28;20033;-68
2021/09/23 00:15:30;;;;;;;3.35;3.05;;;10.50;89.40;;;;;;5043067;28;20037;-68
2021/09/23 00:17:58;;;;;;;4.60;2.83;;;10.40;89.40;;;;;;5042785;28;20037;-68
2021/09/23 00:20:27;;;;;;;4.28;2.83;;;10.40;89.60;;;;;;5043775;28;20028;-68
2021/09/23 00:22:52;;;;;;;3.20;2.90;;;10.30;89.60;;;;;;5040901;28;20422;-69
2021/09/23 00:25:18;;;;;;;5.25;3.40;;;10.30;89.70;;;;;;5043161;28;20499;-68
2021/09/23 00:27:45;;;;;;;3.70;2.83;;;10.30;89.70;;;;;;5040946;28;20032;-68
2021/09/23 00:30:12;;;;;;;3.58;3.22;;;10.20;89.60;;;;;;5040395;28;20029;-68
2021/09/23 00:32:38;;;;;;;3.40;3.10;;;10.20;89.60;;;;;;5040286;28;20029;-68
2021/09/23 00:35:06;;;;;;;4.45;3.30;;;10.20;89.70;;;;;;5014154;28;20037;-68
2021/09/23 00:37:32;;;;;;;4.43;3.30;;;10.10;89.80;;;;;;5040226;28;20025;-68
2021/09/23 00:39:57;;;;;;;3.58;3.08;;;10.10;89.90;;;;;;5040199;28;20043;-68
2021/09/23 00:42:23;;;;;;;3.20;2.90;;;10.10;89.90;;;;;;5016209;28;20141;-68
2021/09/23 00:44:57;;;;;;;4.95;3.03;;;10.10;89.80;;;;;;5039329;28;20143;-68
2021/09/23 00:47:23;;;;;;;3.83;3.38;;;10.00;89.90;;;;;;5042957;28;20104;-68
2021/09/23 00:49:49;;;;;;;5.65;3.17;;;10.00;89.90;;;;;;5038067;28;20103;-68
2021/09/23 00:52:16;;;;;;;5.40;3.70;;;10.00;90.00;;;;;;5023286;28;20111;-68
2021/09/23 00:54:41;;;;;;;4.57;3.40;;;10.00;89.90;;;;;;5040716;28;20041;-68
2021/09/23 00:57:07;;;;;;;4.20;3.55;;;10.00;89.90;;;;;;5038382;28;20051;-68
2021/09/23 00:59:34;;;;;;;6.13;3.40;;;9.90;90.00;;;;;;5043167;28;20059;-68
2021/09/23 01:01:59;;;;;;;3.55;3.10;;;9.90;90.00;;;;;;5038944;28;20103;-68
2021/09/23 01:04:25;;;;;;;3.97;3.47;;;9.90;90.00;;;;;;5039109;28;20465;-68
2021/09/23 01:06:52;;;;;;;7.15;3.67;;;9.90;90.00;;;;;;5042343;28;20485;-68
2021/09/23 01:09:18;;;;;;;6.15;3.80;;;9.80;90.00;;;;;;5037952;28;20082;-68
2021/09/23 01:11:44;;;;;;;3.35;3.05;;;9.90;90.10;;;;;;5040703;28;20029;-68
2021/09/23 01:14:11;;;;;;;5.85;3.42;;;9.80;90.10;;;;;;5038686;28;20036;-68
2021/09/23 01:16:37;;;;;;;6.00;3.30;;;9.80;90.10;;;;;;5038267;28;20496;-68
2021/09/23 01:19:03;;;;;;;4.10;3.38;;;9.80;90.10;;;;;;5041165;28;20548;-68
2021/09/23 01:21:29;;;;;;;4.50;3.47;;;9.70;90.10;;;;;;5043197;28;20127;-68
2021/09/23 01:23:54;;;;;;;5.15;3.50;;;9.70;90.10;;;;;;5040025;28;20029;-68
2021/09/23 01:26:31;;;;;;;4.93;3.83;;;9.80;90.20;;;;;;5041359;28;20569;-68
2021/09/23 01:28:57;;;;;;;4.55;3.45;;;9.70;90.10;;;;;;5043783;28;20029;-68
2021/09/23 01:31:23;;;;;;;4.30;3.78;;;9.70;90.10;;;;;;5048083;28;20035;-68
2021/09/23 01:33:50;;;;;;;5.93;3.40;;;9.70;90.20;;;;;;5042179;28;20025;-68
2021/09/23 01:36:16;;;;;;;4.60;3.63;;;9.70;90.20;;;;;;5042536;28;20406;-68
2021/09/23 01:38:42;;;;;;;6.82;3.53;;;9.70;90.20;;;;;;5042300;28;20033;-68
2021/09/23 01:41:07;;;;;;;3.85;3.38;;;9.70;90.30;;;;;;5041447;28;20032;-68
2021/09/23 01:43:33;;;;;;;5.32;3.67;;;9.70;90.30;;;;;;5040144;28;20029;-68
2021/09/23 01:45:58;;;;;;;4.63;3.25;;;9.70;90.20;;;;;;5041985;28;20033;-67
2021/09/23 01:48:24;;;;;;;10.07;3.95;;;9.70;90.30;;;;;;5043095;28;20512;-68
2021/09/23 01:50:50;;;;;;;4.25;3.33;;;9.70;90.30;;;;;;5025164;28;20033;-68
2021/09/23 01:53:15;;;;;;;3.90;3.50;;;9.70;90.40;;;;;;5039005;28;20047;-68
2021/09/23 01:55:41;;;;;;;4.47;3.40;;;9.70;90.30;;;;;;5043914;28;22406;-68
2021/09/23 01:58:07;;;;;;;3.92;3.22;;;9.70;90.40;;;;;;5041650;28;20114;-68
2021/09/23 02:00:33;;;;;;;4.95;3.40;;;9.70;90.30;;;;;;5025300;28;20056;-68
2021/09/23 02:02:59;;;;;;;6.68;3.60;;;9.60;90.30;;;;;;5040867;28;20477;-68
2021/09/23 02:05:24;;;;;;;6.88;3.70;;;9.60;90.30;;;;;;5040913;28;20029;-69
2021/09/23 02:07:50;;;;;;;7.82;3.75;;;9.50;90.30;;;;;;5041692;28;20499;-68
2021/09/23 02:10:16;;;;;;;5.95;4.00;;;9.50;90.40;;;;;;5023672;28;20025;-68
2021/09/23 02:12:42;;;;;;;4.35;3.67;;;9.40;90.40;;;;;;5040599;28;20051;-68
2021/09/23 02:15:08;;;;;;;7.68;3.72;;;9.50;90.50;;;;;;5041755;28;20130;-68
2021/09/23 02:17:33;;;;;;;6.18;3.47;;;9.40;90.40;;;;;;5040614;28;20055;-68
2021/09/23 02:19:59;;;;;;;7.85;3.53;;;9.30;90.30;;;;;;5041197;28;20029;-68
2021/09/23 02:22:25;;;;;;;3.90;3.30;;;9.30;90.30;;;;;;5042832;28;20036;-68
2021/09/23 02:24:52;;;;;;;4.95;3.90;;;9.20;90.40;;;;;;5040254;28;20037;-68
2021/09/23 02:27:18;;;;;;;4.38;3.40;;;9.10;90.40;;;;;;5038311;28;20025;-68
2021/09/23 02:29:44;;;;;;;3.78;3.28;;;9.10;90.50;;;;;;5021055;28;20559;-68
2021/09/23 02:32:09;;;;;;;6.70;3.78;;;9.10;90.50;;;;;;5043642;28;20051;-68
2021/09/23 02:34:36;;;;;;;5.85;3.45;;;9.10;90.60;;;;;;5043558;28;20080;-67
2021/09/23 02:37:03;;;;;;;4.70;3.60;;;9.10;90.50;;;;;;5044936;28;20036;-67
2021/09/23 02:39:28;;;;;;;4.85;3.40;;;9.10;90.60;;;;;;5044610;28;20055;-67
2021/09/23 02:41:54;;;;;;;4.20;3.72;;;9.10;90.50;;;;;;5050751;28;20017;-67
2021/09/23 02:44:20;;;;;;;4.82;3.33;;;9.10;90.50;;;;;;5038739;28;20033;-67
2021/09/23 02:46:46;;;;;;;4.75;3.38;;;9.00;90.50;;;;;;5043849;28;20096;-67
2021/09/23 02:49:12;;;;;;;3.90;3.42;;;9.00;90.50;;;;;;5047035;28;20033;-67
2021/09/23 02:51:37;;;;;;;4.03;3.17;;;9.00;90.50;;;;;;5040309;28;20029;-67
2021/09/23 02:54:03;;;;;;;4.57;3.42;;;8.90;90.50;;;;;;5041305;28;20852;-67
2021/09/23 02:56:29;;;;;;;4.60;3.47;;;8.80;90.50;;;;;;5027985;28;20028;-67
2021/09/23 02:58:55;;;;;;;4.05;3.10;;;8.80;90.60;;;;;;5041261;28;20047;-67
2021/09/23 03:01:22;;;;;;;5.85;3.60;;;8.80;90.60;;;;;;5042302;28;20048;-67
2021/09/23 03:03:48;;;;;;;4.28;3.13;;;8.80;90.60;;;;;;5042212;28;20409;-67
2021/09/23 03:06:14;;;;;;;6.43;3.00;;;8.70;90.80;;;;;;5039521;28;20048;-67
2021/09/23 03:08:40;;;;;;;4.45;3.28;;;8.70;90.70;;;;;;5037134;28;20044;-68
2021/09/23 03:11:06;;;;;;;4.60;3.45;;;8.70;90.70;;;;;;5043962;28;20037;-68
2021/09/23 03:13:31;;;;;;;4.22;3.50;;;8.70;90.70;;;;;;5042364;28;20512;-67
2021/09/23 03:15:57;;;;;;;5.13;3.20;;;8.70;90.60;;;;;;5041916;28;20036;-68
2021/09/23 03:18:23;;;;;;;4.82;3.13;;;8.70;90.70;;;;;;5042071;28;20127;-68
2021/09/23 03:20:49;;;;;;;7.32;2.88;;;8.70;90.60;;;;;;5040400;28;20114;-68
2021/09/23 03:23:15;;;;;;;11.73;3.95;;;8.70;90.70;;;;;;5041451;28;20120;-67
2021/09/23 03:25:41;;;;;;;4.60;3.25;;;8.70;90.70;;;;;;5042512;28;20032;-68
2021/09/23 03:28:07;;;;;;;6.10;3.58;;;8.70;90.70;;;;;;5040097;28;20021;-68
2021/09/23 03:30:34;;;;;;;6.47;2.90;;;8.70;90.60;;;;;;5042081;28;20023;-68
2021/09/23 03:33:01;;;;;;;6.45;3.50;;;8.70;90.60;;;;;;5041809;28;20029;-67
2021/09/23 03:35:27;;;;;;;3.53;3.22;;;8.70;90.90;;;;;;5041711;28;20108;-67
2021/09/23 03:37:53;;;;;;;4.22;3.20;;;8.70;90.70;;;;;;5042491;28;20116;-68
2021/09/23 03:40:18;;;;;;;5.47;3.05;;;8.70;90.70;;;;;;5040471;28;20485;-68
2021/09/23 03:42:44;;;;;;;4.63;3.60;;;8.70;90.70;;;;;;5046680;28;20035;-68
2021/09/23 03:45:11;;;;;;;5.22;3.60;;;8.70;90.60;;;;;;5041696;28;20087;-68
2021/09/23 03:47:36;;;;;;;4.10;3.00;;;8.70;90.50;;;;;;5043762;28;20021;-67
2021/09/23 03:50:05;;;;;;;4.18;3.45;;;8.70;90.50;;;;;;5044379;28;20625;-67
2021/09/23 03:52:30;;;;;;;5.50;4.00;;;8.60;90.50;;;;;;5041816;28;20520;-67
2021/09/23 03:54:56;;;;;;;6.95;3.60;;;8.60;90.50;;;;;;5045335;28;20025;-68
2021/09/23 03:57:22;;;;;;;13.13;4.50;;;8.50;90.60;;;;;;5107030;22;20075;-68
2021/09/23 03:59:47;;;;;;;8.90;5.00;;;8.50;90.60;;;;;;5021621;28;20052;-67
2021/09/23 04:02:14;;;;;;;7.20;5.20;;;8.40;90.60;;;;;;5033276;28;20040;-66
2021/09/23 04:04:39;;;;;;;15.00;5.97;;;8.40;90.60;;;;;;5012382;28;20372;-68
2021/09/23 04:07:05;;;;;;;5.65;5.00;;;8.30;90.60;;;;;;5015917;28;20040;-67
2021/09/23 04:09:31;;;;;;;11.70;5.50;;;8.30;90.80;;;;;;5032001;28;20375;-68
2021/09/23 04:11:56;;;;;;;6.45;5.22;;;8.30;90.70;;;;;;5033570;28;20033;-67
2021/09/23 04:14:22;;;;;;;25.13;4.82;;;8.20;90.80;;;;;;5030649;28;20498;-67
2021/09/23 04:16:50;;;;;;;7.95;5.25;;;8.20;90.90;;;;;;5032953;28;20488;-67
2021/09/23 04:19:16;;;;;;;11.20;5.22;;;8.20;90.90;;;;;;5013287;28;20428;-67
2021/09/23 04:21:42;;;;;;;20.50;4.70;;;8.20;91.00;;;;;;5034269;28;20051;-67
2021/09/23 04:24:07;;;;;;;7.70;4.75;;;8.20;90.90;;;;;;5025459;28;20407;-67
2021/09/23 04:26:33;;;;;;;5.40;4.20;;;8.10;90.90;;;;;;5028625;28;20029;-67
2021/09/23 04:28:59;;;;;;;8.10;5.30;;;8.00;91.00;;;;;;5030680;28;20029;-67
2021/09/23 04:31:24;;;;;;;14.88;5.53;;;8.00;91.00;;;;;;5028692;28;21725;-67
2021/09/23 04:33:50;;;;;;;28.30;4.55;;;7.90;91.30;;;;;;5030843;28;20032;-67
2021/09/23 04:36:15;;;;;;;7.65;4.57;;;7.90;91.10;;;;;;5033798;28;20052;-67
2021/09/23 04:38:41;;;;;;;6.03;4.53;;;7.80;91.20;;;;;;5026357;28;20109;-67
2021/09/23 04:41:07;;;;;;;5.78;4.40;;;7.80;91.30;;;;;;5027878;28;20021;-67
2021/09/23 04:43:33;;;;;;;5.70;4.32;;;7.80;91.40;;;;;;5029114;28;21638;-68
2021/09/23 04:45:59;;;;;;;5.45;4.93;;;7.80;91.50;;;;;;5033731;28;20075;-67
2021/09/23 04:48:24;;;;;;;5.88;4.75;;;7.80;91.40;;;;;;5031117;28;20422;-67
2021/09/23 04:50:50;;;;;;;4.88;3.63;;;7.70;91.30;;;;;;5034479;28;20025;-67
2021/09/23 04:53:16;;;;;;;4.72;3.88;;;7.60;91.30;;;;;;5025294;28;20026;-67
2021/09/23 04:55:41;;;;;;;8.40;5.32;;;7.60;91.20;;;;;;5012185;28;20493;-67
2021/09/23 04:58:07;;;;;;;7.45;5.10;;;7.50;91.20;;;;;;5024586;28;20125;-67
2021/09/23 05:00:32;;;;;;;22.35;5.45;;;7.50;91.40;;;;;;5032065;28;20033;-67
2021/09/23 05:02:58;;;;;;;15.13;6.10;;;7.50;91.40;;;;;;5031929;28;20470;-67
2021/09/23 05:05:24;;;;;;;23.40;7.25;;;7.50;91.30;;;;;;5020375;28;20106;-67
2021/09/23 05:07:49;;;;;;;16.45;7.53;;;7.40;91.30;;;;;;5025333;28;20659;-67
2021/09/23 05:10:15;;;;;;;15.45;7.45;;;7.40;91.30;;;;;;5024348;28;20057;-67
2021/09/23 05:12:40;;;;;;;15.77;7.30;;;7.40;91.50;;;;;;5019313;28;20034;-67
2021/09/23 05:15:07;;;;;;;19.38;8.25;;;7.30;91.60;;;;;;5029111;28;20067;-67
2021/09/23 05:17:32;;;;;;;18.52;7.93;;;7.40;91.70;;;;;;5032537;28;20035;-67
2021/09/23 05:19:58;;;;;;;17.42;8.00;;;7.40;91.70;;;;;;5034204;28;20038;-67
2021/09/23 05:22:27;;;;;;;15.82;7.47;;;7.40;91.70;;;;;;5031079;28;20080;-67
2021/09/23 05:24:54;;;;;;;16.33;7.22;;;7.40;91.70;;;;;;5028885;28;20045;-67
2021/09/23 05:27:19;;;;;;;12.88;6.40;;;7.40;91.70;;;;;;5026076;28;20025;-67
2021/09/23 05:29:45;;;;;;;14.13;7.63;;;7.40;91.70;;;;;;5029439;28;20087;-67
2021/09/23 05:32:11;;;;;;;9.98;6.07;;;7.30;91.70;;;;;;5025685;28;20136;-67
2021/09/23 05:34:36;;;;;;;12.80;5.93;;;7.30;91.70;;;;;;5011213;28;20150;-67
2021/09/23 05:37:02;;;;;;;12.55;6.20;;;7.30;91.80;;;;;;5031472;28;20057;-67
2021/09/23 05:39:28;;;;;;;11.18;5.63;;;7.30;91.80;;;;;;5006014;28;20032;-67
2021/09/23 05:41:53;;;;;;;11.75;5.10;;;7.40;91.80;;;;;;5033075;28;20032;-67
2021/09/23 05:44:23;;;;;;;7.00;4.70;;;7.40;91.80;;;;;;5027582;28;20070;-67
2021/09/23 05:46:53;;;;;;;9.60;4.78;;;7.40;91.90;;;;;;5015552;28;20026;-67
2021/09/23 05:49:19;;;;;;;9.48;4.68;;;7.40;91.90;;;;;;5028205;28;20075;-67
2021/09/23 05:51:45;;;;;;;8.27;4.45;;;7.40;91.80;;;;;;5028878;28;20100;-67
2021/09/23 05:54:11;;;;;;;9.30;4.70;;;7.40;91.80;;;;;;5025315;28;20034;-68
2021/09/23 05:56:37;;;;;;;5.63;3.97;;;7.40;91.80;;;;;;5027674;28;20036;-67
2021/09/23 05:59:02;;;;;;;7.68;4.43;;;7.40;91.70;;;;;;5010154;28;20378;-67
2021/09/23 06:01:28;;;;;;;8.27;4.82;;;7.40;91.80;;;;;;5023904;28;20049;-67
2021/09/23 06:03:54;;;;;;;8.75;4.88;;;7.40;91.90;;;;;;5031757;28;20021;-67
2021/09/23 06:06:19;;;;;;;7.20;4.43;;;7.40;91.90;;;;;;5030279;28;20050;-67
2021/09/23 06:08:45;;;;;;;5.45;4.43;;;7.50;92.00;;;;;;5030582;28;20045;-67
2021/09/23 06:11:11;;;;;;;6.70;4.65;;;7.50;92.10;;;;;;5032352;28;20071;-67
2021/09/23 06:13:37;;;;;;;195.23;128.40;;;7.60;92.10;;;;;;5028561;28;20059;-67
2021/09/23 06:16:02;;;;;;;13.48;8.60;;;7.70;92.20;;;;;;5014224;28;20160;-67
2021/09/23 06:18:28;;;;;;;7.43;4.95;;;7.70;92.10;;;;;;5032835;28;20726;-66
2021/09/23 06:20:54;;;;;;;6.70;4.68;;;7.70;92.20;;;;;;5033074;28;20021;-67
2021/09/23 06:23:20;;;;;;;6.45;4.32;;;7.70;92.00;;;;;;5033883;28;20063;-66
2021/09/23 06:25:45;;;;;;;9.38;4.47;;;7.70;92.10;;;;;;5038088;28;20051;-66
2021/09/23 06:28:11;;;;;;;7.75;4.70;;;7.80;92.20;;;;;;5015034;28;20021;-66
2021/09/23 06:30:38;;;;;;;9.05;5.72;;;7.80;92.10;;;;;;5034511;28;20021;-66
2021/09/23 06:33:04;;;;;;;7.80;5.65;;;7.80;92.10;;;;;;5030874;28;20021;-67
2021/09/23 06:35:30;;;;;;;7.68;5.07;;;7.80;92.00;;;;;;5028948;28;20041;-67
2021/09/23 06:37:55;;;;;;;11.80;5.95;;;7.90;92.20;;;;;;5022349;28;20135;-68
2021/09/23 06:40:21;;;;;;;30.00;7.05;;;7.90;92.20;;;;;;5014508;28;20112;-66
2021/09/23 06:42:48;;;;;;;16.27;6.93;;;7.90;92.10;;;;;;5024217;28;20072;-67
2021/09/23 06:45:14;;;;;;;14.77;8.23;;;7.80;92.00;;;;;;5028143;28;20080;-67
2021/09/23 06:47:39;;;;;;;18.63;8.55;;;7.80;92.20;;;;;;5027663;28;20128;-69
2021/09/23 06:50:06;;;;;;;16.52;8.68;;;7.80;92.20;;;;;;5022874;28;20049;-67
2021/09/23 06:52:32;;;;;;;23.02;8.65;;;7.90;92.30;;;;;;5022427;28;20057;-68
2021/09/23 06:54:59;;;;;;;17.27;7.68;;;7.90;92.30;;;;;;5022294;28;20482;-66
2021/09/23 06:57:24;;;;;;;12.82;6.65;;;7.90;92.40;;;;;;5030335;28;20033;-67
2021/09/23 06:59:50;;;;;;;11.27;6.43;;;8.00;92.50;;;;;;5012669;28;20033;-68
2021/09/23 07:02:15;;;;;;;9.88;6.25;;;8.10;92.50;;;;;;5023965;28;20034;-68
2021/09/23 07:04:41;;;;;;;8.70;6.10;;;8.20;92.60;;;;;;5019910;28;20040;-67
2021/09/23 07:07:07;;;;;;;9.73;6.35;;;8.30;92.50;;;;;;5032423;28;20147;-67
2021/09/23 07:09:32;;;;;;;9.52;6.20;;;8.40;92.50;;;;;;5029898;28;20029;-67
2021/09/23 07:12:00;;;;;;;7.93;6.32;;;8.60;92.60;;;;;;5025481;28;20113;-69
2021/09/23 07:14:26;;;;;;;8.15;5.40;;;8.70;92.60;;;;;;5026409;28;20029;-66
2021/09/23 07:16:51;;;;;;;10.20;5.72;;;8.90;92.60;;;;;;5030579;28;20505;-67
2021/09/23 07:19:17;;;;;;;13.93;6.90;;;9.10;92.60;;;;;;5032120;28;20037;-67
2021/09/23 07:21:43;;;;;;;9.43;5.93;;;9.40;92.60;;;;;;5028235;28;20026;-67
2021/09/23 07:24:08;;;;;;;7.28;5.10;;;10.20;92.20;;;;;;5005662;28;20026;-66
2021/09/23 07:26:34;;;;;;;6.32;4.63;;;11.10;91.60;;;;;;5012239;28;20080;-67
2021/09/23 07:29:00;;;;;;;4.80;3.70;;;11.90;90.90;;;;;;5014212;28;20029;-67
2021/09/23 07:31:26;;;;;;;5.18;3.50;;;12.40;90.30;;;;;;5024904;28;20031;-68
2021/09/23 07:33:52;;;;;;;6.63;4.40;;;12.70;90.30;;;;;;5032507;28;20083;-68
2021/09/23 07:36:18;;;;;;;4.43;3.58;;;13.20;89.90;;;;;;5030216;28;20033;-67
2021/09/23 07:38:44;;;;;;;5.07;3.38;;;13.80;89.00;;;;;;5027526;28;20436;-68
2021/09/23 07:41:10;;;;;;;6.40;3.42;;;14.50;87.70;;;;;;5035329;28;20821;-69
2021/09/23 07:43:36;;;;;;;4.28;2.85;;;15.10;86.40;;;;;;5030060;28;20034;-67
2021/09/23 07:46:02;;;;;;;5.75;2.90;;;15.60;85.30;;;;;;5026404;28;20061;-67
2021/09/23 07:48:28;;;;;;;4.40;3.13;;;15.90;84.80;;;;;;5036454;28;20116;-66
2021/09/23 07:50:54;;;;;;;4.07;2.92;;;16.00;84.80;;;;;;5014714;28;20544;-65
2021/09/23 07:53:20;;;;;;;3.83;2.97;;;16.00;84.80;;;;;;5021659;28;20029;-67
2021/09/23 07:55:47;;;;;;;3.35;2.65;;;16.00;85.70;;;;;;5013560;28;20044;-67
2021/09/23 07:58:13;;;;;;;4.95;2.92;;;16.10;86.00;;;;;;5013496;28;20030;-66
2021/09/23 08:00:39;;;;;;;3.22;2.63;;;16.40;85.90;;;;;;5034490;28;20393;-69
2021/09/23 08:03:04;;;;;;;6.55;2.58;;;16.60;84.60;;;;;;5008005;28;20029;-71
2021/09/23 08:05:30;;;;;;;9.40;2.70;;;16.60;84.00;;;;;;5005857;28;20040;-70
2021/09/23 08:07:56;;;;;;;5.95;2.88;;;16.60;83.50;;;;;;5030176;28;20029;-71
2021/09/23 08:10:23;;;;;;;5.65;3.22;;;16.50;83.70;;;;;;5011466;28;20036;-70
2021/09/23 08:12:48;;;;;;;5.25;2.78;;;16.50;84.40;;;;;;5028643;28;20122;-70
2021/09/23 08:15:14;;;;;;;4.18;3.00;;;16.40;84.50;;;;;;5029432;28;20029;-71
2021/09/23 08:17:40;;;;;;;4.10;2.80;;;16.50;85.40;;;;;;5010582;28;20440;-69
2021/09/23 08:20:07;;;;;;;4.05;2.92;;;16.60;85.70;;;;;;5027619;28;20017;-69
2021/09/23 08:22:33;;;;;;;7.55;3.03;;;16.70;85.70;;;;;;5028735;28;20033;-70
2021/09/23 08:24:58;;;;;;;7.60;3.20;;;17.00;85.50;;;;;;5028509;28;20022;-71
2021/09/23 08:27:24;;;;;;;4.25;2.70;;;17.00;85.20;;;;;;5027824;28;20021;-71
2021/09/23 08:29:50;;;;;;;3.92;2.80;;;17.00;84.60;;;;;;5021082;28;20381;-68
2021/09/23 08:32:19;;;;;;;5.15;2.88;;;16.90;85.10;;;;;;5003949;28;20038;-71
2021/09/23 08:34:49;;;;;;;5.35;3.13;;;17.10;85.40;;;;;;5025795;28;20133;-70
2021/09/23 08:37:15;;;;;;;4.50;2.67;;;17.10;84.20;;;;;;5027258;28;20041;-69
2021/09/23 08:39:41;;;;;;;6.78;3.50;;;17.10;83.90;;;;;;5029870;28;20355;-69
2021/09/23 08:42:07;;;;;;;4.97;3.00;;;17.00;83.80;;;;;;5020177;28;20052;-69
2021/09/23 08:44:32;;;;;;;3.40;2.65;;;17.00;84.30;;;;;;5008330;28;20049;-68
2021/09/23 08:46:58;;;;;;;4.70;2.90;;;17.10;84.60;;;;;;5025072;28;20516;-67
2021/09/23 08:49:24;;;;;;;5.25;3.25;;;17.40;83.90;;;;;;5025727;28;20033;-67
2021/09/23 08:51:50;;;;;;;3.78;3.17;;;17.40;82.70;;;;;;5025837;28;20108;-68
2021/09/23 08:54:17;;;;;;;7.10;3.42;;;17.40;82.40;;;;;;5004983;28;20486;-69
2021/09/23 08:56:45;;;;;;;4.32;3.10;;;17.30;81.60;;;;;;5012885;28;20539;-69
2021/09/23 08:59:12;;;;;;;4.03;3.13;;;17.20;82.10;;;;;;5017619;28;20367;-68
2021/09/23 09:01:47;;;;;;;6.32;3.20;;;17.20;81.90;;;;;;5012671;28;20021;-67
2021/09/23 09:04:12;;;;;;;4.32;2.97;;;17.20;81.50;;;;;;5018482;28;20022;-67
2021/09/23 09:06:56;;;;;;;6.75;3.13;;;17.10;81.60;;;;;;5019583;28;20120;-67
2021/09/23 09:09:22;;;;;;;6.90;2.95;;;17.00;81.20;;;;;;5024629;28;20029;-68
2021/09/23 09:11:51;;;;;;;9.57;2.97;;;17.00;81.20;;;;;;5009290;28;20029;-68
2021/09/23 09:14:28;;;;;;;6.97;2.38;;;16.90;81.10;;;;;;5024943;28;20373;-68
2021/09/23 09:17:05;;;;;;;5.55;2.67;;;16.90;81.70;;;;;;5023411;28;20116;-67
2021/09/23 09:19:57;;;;;;;4.70;3.03;;;16.80;81.10;;;;;;5024065;28;20026;-68
2021/09/23 09:22:26;;;;;;;2.97;2.70;;;16.90;81.10;;;;;;5027660;28;20104;-69
2021/09/23 09:25:05;;;;;;;7.82;3.17;;;17.00;81.30;;;;;;5021249;28;20471;-66
2021/09/23 09:27:39;;;;;;;6.53;2.80;;;17.00;81.70;;;;;;5021439;28;20598;-68
2021/09/23 09:30:12;;;;;;;3.55;2.72;;;17.30;81.70;;;;;;5022637;28;20116;-67
2021/09/23 09:32:47;;;;;;;4.78;2.90;;;17.40;80.80;;;;;;5006822;28;20032;-66
2021/09/23 09:35:23;;;;;;;4.72;2.60;;;17.50;79.90;;;;;;5027500;28;20032;-67
2021/09/23 09:37:53;;;;;;;5.93;3.13;;;17.50;81.00;;;;;;5021670;28;20530;-66
2021/09/23 09:40:22;;;;;;;7.07;3.33;;;17.50;81.10;;;;;;5027692;28;20033;-67
2021/09/23 09:42:51;;;;;;;6.55;3.40;;;17.60;80.40;;;;;;5004641;28;20022;-69
2021/09/23 09:45:21;;;;;;;5.05;2.70;;;17.60;80.10;;;;;;5027469;28;20452;-67
2021/09/23 09:47:53;;;;;;;4.78;2.78;;;17.70;79.20;;;;;;5028397;28;20389;-66
2021/09/23 09:50:25;;;;;;;4.45;3.22;;;17.60;79.70;;;;;;5026168;28;20030;-67
2021/09/23 09:52:57;;;;;;;3.85;2.72;;;17.60;80.60;;;;;;5020880;28;20033;-67
2021/09/23 09:55:24;;;;;;;7.28;3.35;;;17.70;81.20;;;;;;5037772;28;20228;-67
2021/09/23 09:57:51;;;;;;;5.28;2.95;;;17.80;80.80;;;;;;5104196;22;20087;-68
2021/09/23 10:00:18;;;;;;;5.28;2.72;;;18.00;80.30;;;;;;5040579;28;20492;-68
2021/09/23 10:02:44;;;;;;;3.75;2.47;;;18.20;80.30;;;;;;5037110;28;20060;-68
2021/09/23 10:05:15;;;;;;;5.70;2.70;;;18.30;80.00;;;;;;5045647;28;20431;-68
2021/09/23 10:07:46;;;;;;;3.75;2.60;;;18.40;79.30;;;;;;5050297;28;20057;-65
2021/09/23 10:10:13;;;;;;;3.90;3.10;;;18.60;79.10;;;;;;5030993;28;20041;-68
2021/09/23 10:12:41;;;;;;;3.47;2.78;;;18.60;78.50;;;;;;5029945;28;20025;-68
2021/09/23 10:15:15;;;;;;;4.18;2.88;;;18.60;78.10;;;;;;5044259;28;20033;-68
2021/09/23 10:17:45;;;;;;;4.60;3.00;;;18.60;78.20;;;;;;5050508;28;20033;-68
2021/09/23 10:20:20;;;;;;;3.90;2.47;;;18.70;78.30;;;;;;5050492;28;20403;-66
2021/09/23 10:22:46;;;;;;;4.03;2.72;;;18.80;78.30;;;;;;5031097;28;20075;-67
2021/09/23 10:25:16;;;;;;;4.18;2.38;;;18.90;78.40;;;;;;5049474;28;20104;-68
2021/09/23 10:27:58;;;;;;;3.25;2.25;;;19.00;77.80;;;;;;5037806;28;20036;-68
2021/09/23 10:30:32;;;;;;;4.55;2.33;;;19.10;77.60;;;;;;5030104;28;20033;-69
2021/09/23 10:32:59;;;;;;;2.47;2.20;;;19.20;77.40;;;;;;5029929;28;20026;-66
2021/09/23 10:35:26;;;;;;;7.18;2.58;;;19.30;77.30;;;;;;5046359;28;20087;-67
2021/09/23 10:37:57;;;;;;;4.18;2.42;;;19.40;76.90;;;;;;5050244;28;20025;-67
2021/09/23 10:40:24;;;;;;;4.57;2.30;;;19.40;76.40;;;;;;5050086;28;20037;-68
2021/09/23 10:42:52;;;;;;;3.80;2.05;;;19.50;76.20;;;;;;5049343;28;20044;-69
2021/09/23 10:45:22;;;;;;;5.57;2.15;;;19.60;76.00;;;;;;5043352;28;20018;-69
2021/09/23 10:47:49;;;;;;;6.30;2.33;;;19.60;75.60;;;;;;5042827;28;20060;-67
2021/09/23 10:50:25;;;;;;;5.40;2.40;;;19.70;75.30;;;;;;5027067;28;20035;-69
2021/09/23 10:52:51;;;;;;;4.20;2.30;;;19.80;75.40;;;;;;5030516;28;21051;-66
2021/09/23 10:55:16;;;;;;;4.57;2.40;;;19.80;75.00;;;;;;5050091;28;20029;-69
2021/09/23 10:57:44;;;;;;;4.88;2.30;;;19.90;74.80;;;;;;5047551;28;20056;-69
2021/09/23 11:00:11;;;;;;;3.00;2.05;;;20.00;75.00;;;;;;5050319;28;20025;-69
2021/09/23 11:02:37;;;;;;;2.22;2.00;;;20.10;74.70;;;;;;5052278;28;20438;-67
2021/09/23 11:05:05;;;;;;;4.43;2.67;;;20.20;74.60;;;;;;5052067;28;20044;-68
2021/09/23 11:07:33;;;;;;;3.42;2.10;;;20.40;73.90;;;;;;5032060;28;20093;-68
2021/09/23 11:10:14;;;;;;;3.70;2.00;;;20.50;74.30;;;;;;5051560;28;20463;-66
2021/09/23 11:12:43;;;;;;;4.40;1.70;;;20.60;73.90;;;;;;5035055;28;20481;-69
2021/09/23 11:15:11;;;;;;;5.47;1.85;;;20.80;73.90;;;;;;5051771;28;20116;-69
2021/09/23 11:17:39;;;;;;;2.67;1.73;;;21.00;73.30;;;;;;5050619;28;20108;-69
2021/09/23 11:20:09;;;;;;;2.38;1.70;;;21.10;72.60;;;;;;5048564;28;20151;-68
2021/09/23 11:22:41;;;;;;;3.35;2.05;;;21.20;71.40;;;;;;5043660;28;20037;-67
2021/09/23 11:25:12;;;;;;;1.98;1.80;;;21.30;71.50;;;;;;5040338;28;20021;-70
2021/09/23 11:27:40;;;;;;;3.17;1.77;;;21.40;71.10;;;;;;5029192;28;20111;-69
2021/09/23 11:30:09;;;;;;;2.20;2.00;;;21.50;71.20;;;;;;5046466;28;20032;-69
2021/09/23 11:32:49;;;;;;;3.60;2.03;;;21.50;70.30;;;;;;5043095;28;20036;-68
2021/09/23 11:35:17;;;;;;;2.30;2.10;;;21.50;69.50;;;;;;5048805;28;20017;-68
2021/09/23 11:37:43;;;;;;;3.25;1.92;;;21.50;69.30;;;;;;5037853;28;20022;-70
2021/09/23 11:40:10;;;;;;;5.68;2.08;;;21.60;69.90;;;;;;5041215;28;20025;-68
2021/09/23 11:42:39;;;;;;;3.65;2.15;;;21.70;69.70;;;;;;5044993;28;20108;-67
2021/09/23 11:45:17;;;;;;;3.33;1.80;;;21.80;69.50;;;;;;5047083;28;20465;-69
2021/09/23 11:47:44;;;;;;;3.95;1.85;;;21.90;68.70;;;;;;5045122;28;20170;-69
2021/09/23 11:50:20;;;;;;;2.00;1.52;;;22.00;69.20;;;;;;5048817;28;20033;-68
2021/09/23 11:52:55;;;;;;;3.00;1.83;;;22.10;68.90;;;;;;5032446;28;20055;-68
2021/09/23 11:55:20;;;;;;;3.17;1.67;;;22.20;68.00;;;;;;5034539;28;20035;-68
2021/09/23 11:57:46;;;;;;;2.50;1.80;;;22.30;68.50;;;;;;5042922;28;20032;-68
2021/09/23 12:00:12;;;;;;;2.67;2.28;;;22.40;67.80;;;;;;5048707;28;20098;-69
2021/09/23 12:02:38;;;;;;;4.15;1.70;;;22.60;66.90;;;;;;5040318;28;20084;-68
2021/09/23 12:05:03;;;;;;;2.45;1.77;;;22.60;66.50;;;;;;5048330;28;20464;-67
2021/09/23 12:07:43;;;;;;;2.80;1.90;;;22.60;66.40;;;;;;5021899;28;20025;-68
2021/09/23 12:10:11;;;;;;;3.55;2.08;;;22.70;65.10;;;;;;5041077;28;20516;-68
2021/09/23 12:12:37;;;;;;;2.53;1.67;;;22.70;65.30;;;;;;5041146;28;20491;-66
2021/09/23 12:15:03;;;;;;;2.35;2.00;;;22.70;65.10;;;;;;5049898;28;20029;-67
2021/09/23 12:17:29;;;;;;;2.78;1.67;;;22.70;64.50;;;;;;5041157;28;20020;-68
2021/09/23 12:20:00;;;;;;;3.05;1.90;;;22.60;64.00;;;;;;5033513;28;20032;-67
2021/09/23 12:22:32;;;;;;;3.35;1.80;;;22.50;63.50;;;;;;5047119;28;20106;-67
2021/09/23 12:24:58;;;;;;;2.00;1.80;;;22.50;64.00;;;;;;5047728;28;20017;-67
2021/09/23 12:27:25;;;;;;;3.75;1.83;;;22.60;64.60;;;;;;5046357;28;20087;-66
2021/09/23 12:29:55;;;;;;;3.22;1.80;;;22.70;64.30;;;;;;5048370;28;20032;-66
2021/09/23 12:32:34;;;;;;;4.93;3.28;;;22.80;64.20;;;;;;5022112;28;20560;-68
2021/09/23 12:35:13;;;;;;;4.88;1.75;;;23.00;64.20;;;;;;5035161;28;20025;-67
2021/09/23 12:37:39;;;;;;;1.70;1.58;;;23.20;64.50;;;;;;5030158;28;20246;-66
2021/09/23 12:40:05;;;;;;;4.05;1.80;;;23.50;64.30;;;;;;5033913;28;20120;-68
2021/09/23 12:42:34;;;;;;;2.42;1.38;;;23.70;64.20;;;;;;5042596;28;20053;-68
2021/09/23 12:45:06;;;;;;;1.55;1.45;;;23.90;63.20;;;;;;5033923;28;20021;-66
2021/09/23 12:47:46;;;;;;;2.30;1.42;;;24.10;62.60;;;;;;5050019;28;20039;-66
2021/09/23 12:50:14;;;;;;;1.40;1.20;;;24.20;61.40;;;;;;5043514;28;20055;-67
2021/09/23 12:52:42;;;;;;;1.75;1.65;;;24.30;61.30;;;;;;5035761;28;20021;-66